createdAt,value
2022-12-03T00:00:41.504Z,33.50
2022-12-03T00:03:08.634Z,35.40
2022-12-03T00:05:36.488Z,31.88
2022-12-03T00:08:03.962Z,31.50
2022-12-03T00:10:30.643Z,29.85
2022-12-03T00:12:58.459Z,29.98
2022-12-03T00:15:25.059Z,32.83
2022-12-03T00:17:52.600Z,29.55
2022-12-03T00:20:22.097Z,26.73
2022-12-03T00:22:49.830Z,29.45
2022-12-03T00:25:16.626Z,32.83
2022-12-03T00:27:46.398Z,28.33
2022-12-03T00:30:14.546Z,32.47
2022-12-03T00:32:42.233Z,29.52
2022-12-03T00:35:09.139Z,28.63
2022-12-03T00:37:36.900Z,25.92
2022-12-03T00:40:05.354Z,28.10
2022-12-03T00:42:32.470Z,27.90
2022-12-03T00:44:59.039Z,31.35
2022-12-03T00:47:25.538Z,31.38
2022-12-03T00:49:52.323Z,29.00
2022-12-03T00:52:18.870Z,28.48
2022-12-03T00:54:49.572Z,28.48
2022-12-03T00:57:16.799Z,29.77
2022-12-03T00:59:43.855Z,26.40
2022-12-03T01:02:10.511Z,29.27
2022-12-03T01:04:37.730Z,27.77
2022-12-03T01:07:04.900Z,25.38
2022-12-03T01:09:31.972Z,28.83
2022-12-03T01:11:58.912Z,25.65
2022-12-03T01:14:25.977Z,27.95
2022-12-03T01:16:53.675Z,30.65
2022-12-03T01:19:22.731Z,26.67
2022-12-03T01:21:50.797Z,30.17
2022-12-03T01:24:18.909Z,28.88
2022-12-03T01:26:45.366Z,28.83
2022-12-03T01:29:12.426Z,27.83
2022-12-03T01:31:58.229Z,30.65
2022-12-03T01:34:24.875Z,30.90
2022-12-03T01:36:52.561Z,27.60
2022-12-03T01:39:19.445Z,29.48
2022-12-03T01:41:48.686Z,32.15
2022-12-03T01:44:20.944Z,30.75
2022-12-03T01:46:48.414Z,28.25
2022-12-03T01:49:21.448Z,33.63
2022-12-03T01:51:49.699Z,30.95
2022-12-03T01:56:48.262Z,35.58
2022-12-03T01:59:21.098Z,35.20
2022-12-03T02:01:47.696Z,41.25
2022-12-03T02:04:17.057Z,33.75
2022-12-03T02:06:44.470Z,31.23
2022-12-03T02:09:12.187Z,31.85
2022-12-03T02:11:47.173Z,31.75
2022-12-03T02:14:19.826Z,34.55
2022-12-03T02:16:46.813Z,33.88
2022-12-03T02:19:31.592Z,34.17
2022-12-03T02:22:07.739Z,30.95
2022-12-03T02:24:43.842Z,35.63
2022-12-03T02:27:10.237Z,33.55
2022-12-03T02:29:36.872Z,32.47
2022-12-03T02:32:04.098Z,35.88
2022-12-03T02:34:37.178Z,36.30
2022-12-03T02:37:07.848Z,32.95
2022-12-03T02:39:38.395Z,34.95
2022-12-03T02:42:25.394Z,32.15
2022-12-03T02:44:52.666Z,35.33
2022-12-03T02:47:21.322Z,33.83
2022-12-03T02:49:48.336Z,36.92
2022-12-03T02:52:14.929Z,32.05
2022-12-03T02:54:41.884Z,30.90
2022-12-03T02:57:08.777Z,36.90
2022-12-03T02:59:35.347Z,36.28
2022-12-03T03:02:01.857Z,32.85
2022-12-03T03:04:28.759Z,35.22
2022-12-03T03:06:55.280Z,33.33
2022-12-03T03:09:22.036Z,36.22
2022-12-03T03:11:48.467Z,32.63
2022-12-03T03:14:15.781Z,36.72
2022-12-03T03:16:42.277Z,30.20
2022-12-03T03:19:08.802Z,32.42
2022-12-03T03:21:35.197Z,34.45
2022-12-03T03:24:01.721Z,31.23
2022-12-03T03:26:28.227Z,32.28
2022-12-03T03:28:54.637Z,34.00
2022-12-03T03:31:24.062Z,29.77
2022-12-03T03:33:51.464Z,31.67
2022-12-03T03:36:19.686Z,33.90
2022-12-03T03:38:47.333Z,30.95
2022-12-03T03:41:15.090Z,29.17
2022-12-03T03:43:42.969Z,29.23
2022-12-03T03:46:10.365Z,32.33
2022-12-03T03:48:37.315Z,31.60
2022-12-03T03:51:08.905Z,34.78
2022-12-03T03:53:47.939Z,30.90
2022-12-03T03:56:19.757Z,33.85
2022-12-03T03:58:46.359Z,33.25
2022-12-03T04:01:14.089Z,28.77
2022-12-03T04:03:41.074Z,29.80
2022-12-03T04:06:08.136Z,33.75
2022-12-03T04:08:34.628Z,37.13
2022-12-03T04:11:19.468Z,36.47
2022-12-03T04:13:45.896Z,33.20
2022-12-03T04:16:12.344Z,30.20
2022-12-03T04:18:44.741Z,37.83
2022-12-03T04:21:31.294Z,34.33
2022-12-03T04:23:57.873Z,34.30
2022-12-03T04:26:42.606Z,36.30
2022-12-03T04:29:09.447Z,35.13
2022-12-03T04:31:54.199Z,32.67
2022-12-03T04:34:39.192Z,31.95
2022-12-03T04:37:06.079Z,31.13
2022-12-03T04:39:33.393Z,36.40
2022-12-03T04:41:59.874Z,32.17
2022-12-03T04:44:38.477Z,37.30
2022-12-03T04:47:17.298Z,29.23
2022-12-03T04:49:48.536Z,31.10
2022-12-03T04:52:19.747Z,33.40
2022-12-03T04:54:46.461Z,35.75
2022-12-03T04:57:13.133Z,34.65
2022-12-03T04:59:39.754Z,32.03
2022-12-03T05:02:06.786Z,29.83
2022-12-03T05:04:33.325Z,35.05
2022-12-03T05:06:59.775Z,29.77
2022-12-03T05:09:26.241Z,32.45
2022-12-03T05:11:52.724Z,31.67
2022-12-03T05:14:19.281Z,34.65
2022-12-03T05:16:45.894Z,33.08
2022-12-03T05:19:12.433Z,31.88
2022-12-03T05:21:38.983Z,32.05
2022-12-03T05:24:05.900Z,33.78
2022-12-03T05:26:32.469Z,33.60
2022-12-03T05:28:58.862Z,27.77
2022-12-03T05:31:25.284Z,29.58
2022-12-03T05:33:51.910Z,29.65
2022-12-03T05:36:18.731Z,30.77
2022-12-03T05:38:45.111Z,31.00
2022-12-03T05:41:30.197Z,33.78
2022-12-03T05:43:56.735Z,33.88
2022-12-03T05:46:25.902Z,31.02
2022-12-03T05:48:52.491Z,34.72
2022-12-03T05:51:18.926Z,32.63
2022-12-03T05:53:45.349Z,31.25
2022-12-03T05:56:11.786Z,32.13
2022-12-03T05:58:38.224Z,33.33
2022-12-03T06:01:04.787Z,35.40
2022-12-03T06:03:31.352Z,33.53
2022-12-03T06:05:57.823Z,34.63
2022-12-03T06:08:24.188Z,35.47
2022-12-03T06:10:50.725Z,31.15
2022-12-03T06:13:17.424Z,38.78
2022-12-03T06:15:44.345Z,39.30
2022-12-03T06:18:11.218Z,38.53
2022-12-03T06:20:37.811Z,44.47
2022-12-03T06:23:04.290Z,32.33
2022-12-03T06:25:30.768Z,37.67
2022-12-03T06:27:57.209Z,37.65
2022-12-03T06:30:23.662Z,35.10
2022-12-03T06:32:52.255Z,37.78
2022-12-03T06:35:18.763Z,36.17
2022-12-03T06:37:45.269Z,34.30
2022-12-03T06:40:13.315Z,39.97
2022-12-03T06:42:39.772Z,31.43
2022-12-03T06:45:06.684Z,34.05
2022-12-03T06:47:33.241Z,35.15
2022-12-03T06:49:59.683Z,28.77
2022-12-03T06:52:26.101Z,34.30
2022-12-03T06:54:52.865Z,37.30
2022-12-03T06:57:19.517Z,34.35
2022-12-03T06:59:45.994Z,34.08
2022-12-03T07:02:13.701Z,34.60
2022-12-03T07:04:45.938Z,34.97
2022-12-03T07:07:12.871Z,33.25
2022-12-03T07:09:39.315Z,39.83
2022-12-03T07:12:05.949Z,39.63
2022-12-03T07:14:32.479Z,28.23
2022-12-03T07:16:58.931Z,31.60
2022-12-03T07:19:32.155Z,36.65
2022-12-03T07:21:59.266Z,34.33
2022-12-03T07:24:25.742Z,30.63
2022-12-03T07:26:52.228Z,30.85
2022-12-03T07:29:18.666Z,34.72
2022-12-03T07:31:45.162Z,31.08
2022-12-03T07:34:11.717Z,28.85
2022-12-03T07:36:38.202Z,34.97
2022-12-03T07:39:05.197Z,33.70
2022-12-03T07:41:31.682Z,35.70
2022-12-03T07:43:58.140Z,31.92
2022-12-03T07:46:24.605Z,35.63
2022-12-03T07:48:51.104Z,32.58
2022-12-03T07:51:17.593Z,38.70
2022-12-03T07:53:44.228Z,32.72
2022-12-03T07:56:10.980Z,34.58
2022-12-03T07:58:37.388Z,31.98
2022-12-03T08:01:03.967Z,32.83
2022-12-03T08:03:30.571Z,32.42
2022-12-03T08:05:57.088Z,35.65
2022-12-03T08:08:23.475Z,33.33
2022-12-03T08:10:49.884Z,34.05
2022-12-03T08:13:18.070Z,38.97
2022-12-03T08:15:45.086Z,37.85
2022-12-03T08:18:17.723Z,33.80
2022-12-03T08:20:47.755Z,39.03
2022-12-03T08:23:24.528Z,37.78
2022-12-03T08:25:52.622Z,38.17
2022-12-03T08:28:22.095Z,35.75
2022-12-03T08:31:01.748Z,33.05
2022-12-03T08:33:33.662Z,39.05
2022-12-03T08:36:05.951Z,36.03
2022-12-03T08:38:32.368Z,34.13
2022-12-03T08:40:59.223Z,39.53
2022-12-03T08:43:28.098Z,38.28
2022-12-03T08:45:56.313Z,41.15
2022-12-03T08:48:40.671Z,36.65
2022-12-03T08:51:21.447Z,46.75
2022-12-03T08:53:52.525Z,44.33
2022-12-03T08:56:23.630Z,50.55
2022-12-03T08:59:03.039Z,51.50
2022-12-03T09:01:37.960Z,45.65
2022-12-03T09:04:21.281Z,46.85
2022-12-03T09:06:47.783Z,45.92
2022-12-03T09:09:14.290Z,48.10
2022-12-03T09:11:40.690Z,42.85
2022-12-03T09:14:07.131Z,45.13
2022-12-03T09:16:33.633Z,47.50
2022-12-03T09:19:00.081Z,41.80
2022-12-03T09:21:26.544Z,43.97
2022-12-03T09:23:53.194Z,44.17
2022-12-03T09:26:19.630Z,45.72
2022-12-03T09:28:48.146Z,47.65
2022-12-03T09:31:15.614Z,42.75
2022-12-03T09:33:42.310Z,44.10
2022-12-03T09:36:09.071Z,46.53
2022-12-03T09:38:35.556Z,42.17
2022-12-03T09:41:02.238Z,43.33
2022-12-03T09:44:02.698Z,47.03
2022-12-03T09:46:20.268Z,45.10
2022-12-03T09:48:46.877Z,41.40
2022-12-03T09:51:14.325Z,49.65
2022-12-03T09:53:41.548Z,41.28
2022-12-03T09:56:22.979Z,42.85
2022-12-03T09:58:49.962Z,43.35
2022-12-03T10:01:17.061Z,43.83
2022-12-03T10:03:49.276Z,49.17
2022-12-03T10:06:22.215Z,51.33
2022-12-03T10:08:53.396Z,49.53
2022-12-03T10:11:22.403Z,51.55
2022-12-03T10:13:49.435Z,40.35
2022-12-03T10:16:19.148Z,47.33
2022-12-03T10:18:48.751Z,39.80
2022-12-03T10:21:26.454Z,49.38
2022-12-03T10:24:32.828Z,44.45
2022-12-03T10:27:02.124Z,47.97
2022-12-03T10:29:34.821Z,53.30
2022-12-03T10:32:07.463Z,51.75
2022-12-03T10:34:45.733Z,45.35
2022-12-03T10:37:14.043Z,49.60
2022-12-03T10:39:56.664Z,50.00
2022-12-03T10:42:24.478Z,56.45
2022-12-03T10:45:08.141Z,46.47
2022-12-03T10:47:34.743Z,50.45
2022-12-03T10:50:03.945Z,52.03
2022-12-03T10:52:30.479Z,54.15
2022-12-03T10:54:57.055Z,59.03
2022-12-03T10:57:24.497Z,53.60
2022-12-03T10:59:51.215Z,57.45
2022-12-03T11:02:22.604Z,47.60
2022-12-03T11:04:49.539Z,54.40
2022-12-03T11:07:19.080Z,53.10
2022-12-03T11:09:49.320Z,47.25
2022-12-03T11:12:22.449Z,44.90
2022-12-03T11:14:48.803Z,50.60
2022-12-03T11:17:41.008Z,51.65
2022-12-03T11:20:30.481Z,52.13
2022-12-03T11:22:58.052Z,55.60
2022-12-03T11:25:24.425Z,46.90
2022-12-03T11:28:12.919Z,47.85
2022-12-03T11:30:48.520Z,49.58
2022-12-03T11:33:30.095Z,52.25
2022-12-03T11:36:02.599Z,47.35
2022-12-03T11:38:38.312Z,44.03
2022-12-03T11:41:22.035Z,42.55
2022-12-03T11:43:57.430Z,44.60
2022-12-03T11:46:27.572Z,42.72
2022-12-03T11:48:56.812Z,36.17
2022-12-03T11:51:25.929Z,38.88
2022-12-03T11:53:56.266Z,36.15
2022-12-03T11:56:25.452Z,40.05
2022-12-03T11:59:01.145Z,31.80
2022-12-03T12:01:38.995Z,34.97
2022-12-03T12:04:06.974Z,39.30
2022-12-03T12:06:44.407Z,36.10
2022-12-03T12:09:10.951Z,43.35
2022-12-03T12:11:43.700Z,37.22
2022-12-03T12:14:13.766Z,41.08
2022-12-03T12:16:52.328Z,36.70
2022-12-03T12:19:37.192Z,35.88
2022-12-03T12:22:23.128Z,38.65
2022-12-03T12:24:52.762Z,33.78
2022-12-03T12:27:22.329Z,38.05
2022-12-03T12:29:57.784Z,37.47
2022-12-03T12:32:52.838Z,32.40
2022-12-03T12:35:27.824Z,39.95
2022-12-03T12:38:01.385Z,29.35
2022-12-03T12:40:31.135Z,34.90
2022-12-03T12:43:10.284Z,30.45
2022-12-03T12:45:41.895Z,35.80
2022-12-03T12:48:14.382Z,37.60
2022-12-03T12:50:45.667Z,38.45
2022-12-03T12:53:33.269Z,37.05
2022-12-03T12:56:17.880Z,35.78
2022-12-03T12:58:44.404Z,35.38
2022-12-03T13:01:37.186Z,37.95
2022-12-03T13:04:12.438Z,41.42
2022-12-03T13:06:39.770Z,34.13
2022-12-03T13:09:22.245Z,42.72
2022-12-03T13:11:53.510Z,43.10
2022-12-03T13:14:25.895Z,32.70
2022-12-03T13:16:55.837Z,40.45
2022-12-03T13:19:22.720Z,44.65
2022-12-03T13:21:50.583Z,42.67
2022-12-03T13:24:54.125Z,41.90
2022-12-03T13:27:31.760Z,43.22
2022-12-03T13:30:18.878Z,48.22
2022-12-03T13:32:45.339Z,45.10
2022-12-03T13:35:26.607Z,37.92
2022-12-03T13:37:53.570Z,41.63
2022-12-03T13:40:28.250Z,37.78
2022-12-03T13:42:55.065Z,45.20
2022-12-03T13:45:24.571Z,44.70
2022-12-03T13:47:58.199Z,41.15
2022-12-03T13:50:38.081Z,45.53
2022-12-03T13:53:21.323Z,40.75
2022-12-03T13:55:50.508Z,43.60
2022-12-03T13:58:17.082Z,44.72
2022-12-03T14:00:43.720Z,45.45
2022-12-03T14:03:10.221Z,51.03
2022-12-03T14:05:36.774Z,57.58
2022-12-03T14:08:04.807Z,45.25
2022-12-03T14:10:31.574Z,50.53
2022-12-03T14:12:58.091Z,42.42
2022-12-03T14:15:26.170Z,41.33
2022-12-03T14:17:52.604Z,39.58
2022-12-03T14:20:19.492Z,42.38
2022-12-03T14:22:45.944Z,37.60
2022-12-03T14:25:13.087Z,49.42
2022-12-03T14:27:39.493Z,42.08
2022-12-03T14:30:06.675Z,50.65
2022-12-03T14:32:33.142Z,43.17
2022-12-03T14:35:00.465Z,45.40
2022-12-03T14:37:28.367Z,42.53
2022-12-03T14:39:55.074Z,40.80
2022-12-03T14:42:24.703Z,39.75
2022-12-03T14:44:51.876Z,44.22
2022-12-03T14:47:22.579Z,47.00
2022-12-03T14:49:49.540Z,41.90
2022-12-03T14:52:16.065Z,43.70
2022-12-03T14:54:43.044Z,40.05
2022-12-03T14:57:11.611Z,41.00
2022-12-03T15:02:05.477Z,43.85
2022-12-03T15:04:31.963Z,43.70
2022-12-03T15:06:58.408Z,41.80
2022-12-03T15:09:24.867Z,32.42
2022-12-03T15:11:51.268Z,47.03
2022-12-03T15:14:17.739Z,44.10
2022-12-03T15:16:44.261Z,44.25
2022-12-03T15:19:10.826Z,39.22
2022-12-03T15:21:37.258Z,40.10
2022-12-03T15:24:04.105Z,38.38
2022-12-03T15:26:30.562Z,42.97
2022-12-03T15:28:57.145Z,45.35
2022-12-03T15:31:23.636Z,42.78
2022-12-03T15:33:50.103Z,44.47
2022-12-03T15:36:16.745Z,32.20
2022-12-03T15:38:43.177Z,44.88
2022-12-03T15:41:21.785Z,41.88
2022-12-03T15:43:49.160Z,38.80
2022-12-03T15:46:15.736Z,37.40
2022-12-03T15:48:42.279Z,33.42
2022-12-03T15:51:08.762Z,47.53
2022-12-03T15:53:35.415Z,40.38
2022-12-03T15:56:01.953Z,43.25
2022-12-03T15:58:28.691Z,48.33
2022-12-03T16:00:55.099Z,41.25
2022-12-03T16:03:21.631Z,50.67
2022-12-03T16:05:48.296Z,52.97
2022-12-03T16:08:14.755Z,53.85
2022-12-03T16:10:41.315Z,44.13
2022-12-03T16:13:07.808Z,50.45
2022-12-03T16:15:35.227Z,50.70
2022-12-03T16:18:01.822Z,56.28
2022-12-03T16:20:28.267Z,49.90
2022-12-03T16:22:54.785Z,48.47
2022-12-03T16:25:21.250Z,52.95
2022-12-03T16:27:47.768Z,42.55
2022-12-03T16:30:14.336Z,51.63
2022-12-03T16:32:40.772Z,54.47
2022-12-03T16:35:07.624Z,47.90
2022-12-03T16:37:34.047Z,52.97
2022-12-03T16:40:01.404Z,52.17
2022-12-03T16:42:27.837Z,53.70
2022-12-03T16:45:03.124Z,55.00
2022-12-03T16:47:33.853Z,52.10
2022-12-03T16:50:04.316Z,45.95
2022-12-03T16:52:30.784Z,49.00
2022-12-03T16:54:57.259Z,51.90
2022-12-03T16:57:24.933Z,42.15
2022-12-03T16:59:54.423Z,55.40
2022-12-03T17:02:21.088Z,43.90
2022-12-03T17:04:47.521Z,55.35
2022-12-03T17:07:13.950Z,53.15
2022-12-03T17:09:40.335Z,53.75
2022-12-03T17:12:07.008Z,47.10
2022-12-03T17:14:33.697Z,49.92
2022-12-03T17:17:00.381Z,50.72
2022-12-03T17:19:26.912Z,44.25
2022-12-03T17:21:54.073Z,50.08
2022-12-03T17:24:21.310Z,50.47
2022-12-03T17:26:47.776Z,41.13
2022-12-03T17:29:14.289Z,45.13
2022-12-03T17:31:42.383Z,49.33
2022-12-03T17:36:35.901Z,48.13
2022-12-03T17:39:02.474Z,40.85
2022-12-03T17:41:28.978Z,45.85
2022-12-03T17:43:55.428Z,40.92
2022-12-03T17:46:22.122Z,45.10
2022-12-03T17:48:48.574Z,51.88
2022-12-03T17:51:15.123Z,48.33
2022-12-03T17:53:41.579Z,46.45
2022-12-03T17:56:08.045Z,43.92
2022-12-03T17:58:34.765Z,46.53
2022-12-03T18:01:03.166Z,54.17
2022-12-03T18:05:56.600Z,46.72
2022-12-03T18:08:23.069Z,45.65
2022-12-03T18:10:49.721Z,48.95
2022-12-03T18:13:16.116Z,53.33
2022-12-03T18:15:42.628Z,48.38
2022-12-03T18:18:09.081Z,48.80
2022-12-03T18:20:35.897Z,49.53
2022-12-03T18:23:02.718Z,41.17
2022-12-03T18:25:30.075Z,50.20
2022-12-03T18:27:57.116Z,39.28
2022-12-03T18:30:23.815Z,41.25
2022-12-03T18:32:50.886Z,48.33
2022-12-03T18:35:18.015Z,42.10
2022-12-03T18:37:44.600Z,42.83
2022-12-03T18:40:20.145Z,46.75
2022-12-03T18:42:47.172Z,38.10
2022-12-03T18:45:14.970Z,49.30
2022-12-03T18:47:41.875Z,44.75
2022-12-03T18:50:09.988Z,47.67
2022-12-03T18:52:36.615Z,44.72
2022-12-03T18:55:04.997Z,43.33
2022-12-03T18:57:31.413Z,42.45
2022-12-03T18:59:58.057Z,44.17
2022-12-03T19:03:01.265Z,42.65
2022-12-03T19:05:13.169Z,46.17
2022-12-03T19:07:39.679Z,48.63
2022-12-03T19:10:07.155Z,44.83
2022-12-03T19:12:33.722Z,40.67
2022-12-03T19:15:00.303Z,42.03
2022-12-03T19:17:27.267Z,35.42
2022-12-03T19:19:54.345Z,40.67
2022-12-03T19:22:21.167Z,43.80
2022-12-03T19:24:47.621Z,45.60
2022-12-03T19:27:14.165Z,37.35
2022-12-03T19:29:41.415Z,40.28
2022-12-03T19:32:08.813Z,37.28
2022-12-03T19:34:35.241Z,33.47
2022-12-03T19:37:01.711Z,35.45
2022-12-03T19:39:28.145Z,39.97
2022-12-03T19:41:54.537Z,44.55
2022-12-03T19:44:21.055Z,43.38
2022-12-03T19:46:49.784Z,43.30
2022-12-03T19:49:20.728Z,40.67
2022-12-03T19:51:47.613Z,41.70
2022-12-03T19:54:14.424Z,40.55
2022-12-03T19:56:40.927Z,40.97
2022-12-03T19:59:07.810Z,41.20
2022-12-03T20:01:35.748Z,37.65
2022-12-03T20:04:03.261Z,39.03
2022-12-03T20:06:32.117Z,40.58
2022-12-03T20:09:01.169Z,40.70
2022-12-03T20:11:30.536Z,45.00
2022-12-03T20:14:06.716Z,47.05
2022-12-03T20:16:34.242Z,46.75
2022-12-03T20:19:04.348Z,40.47
2022-12-03T20:21:32.665Z,33.67
2022-12-03T20:23:59.654Z,49.92
2022-12-03T20:26:27.140Z,45.25
2022-12-03T20:28:55.055Z,36.90
2022-12-03T20:31:24.318Z,48.30
2022-12-03T20:33:54.500Z,41.63
2022-12-03T20:36:22.667Z,47.30
2022-12-03T20:38:52.974Z,48.83
2022-12-03T20:41:19.471Z,44.63
2022-12-03T20:43:46.023Z,50.67
2022-12-03T20:46:15.642Z,37.75
2022-12-03T20:48:43.894Z,41.15
2022-12-03T20:51:15.260Z,37.45
2022-12-03T20:53:42.076Z,38.13
2022-12-03T20:56:09.356Z,43.38
2022-12-03T20:58:36.496Z,43.88
2022-12-03T21:01:16.094Z,42.95
2022-12-03T21:03:43.603Z,40.80
2022-12-03T21:06:10.441Z,37.70
2022-12-03T21:08:41.972Z,44.80
2022-12-03T21:11:18.304Z,48.53
2022-12-03T21:13:47.784Z,44.65
2022-12-03T21:16:17.881Z,46.25
2022-12-03T21:18:45.042Z,45.25
2022-12-03T21:21:13.131Z,39.92
2022-12-03T21:23:39.967Z,42.78
2022-12-03T21:26:15.091Z,40.55
2022-12-03T21:28:43.964Z,46.42
2022-12-03T21:31:13.540Z,46.80
2022-12-03T21:33:40.886Z,42.70
2022-12-03T21:36:08.597Z,42.28
2022-12-03T21:38:36.439Z,45.70
2022-12-03T21:41:04.395Z,45.70
2022-12-03T21:43:32.289Z,40.92
2022-12-03T21:45:58.812Z,43.05
2022-12-03T21:48:25.581Z,41.90
2022-12-03T21:51:04.713Z,46.38
2022-12-03T21:53:32.740Z,55.47
2022-12-03T21:56:04.028Z,51.88
2022-12-03T21:58:30.588Z,44.67
2022-12-03T22:00:57.079Z,45.78
2022-12-03T22:03:23.612Z,45.53
2022-12-03T22:05:50.573Z,51.17
2022-12-03T22:08:17.321Z,45.10
2022-12-03T22:10:43.810Z,48.47
2022-12-03T22:13:10.333Z,49.95
2022-12-03T22:15:40.319Z,51.10
2022-12-03T22:18:06.829Z,50.83
2022-12-03T22:20:33.309Z,51.80
2022-12-03T22:23:00.087Z,51.20
2022-12-03T22:25:26.523Z,49.63
2022-12-03T22:27:55.950Z,49.15
2022-12-03T22:30:22.406Z,50.63
2022-12-03T22:32:48.852Z,38.38
2022-12-03T22:35:15.296Z,49.55
2022-12-03T22:37:41.695Z,55.03
2022-12-03T22:40:08.420Z,46.97
2022-12-03T22:42:34.889Z,45.78
2022-12-03T22:45:01.363Z,53.42
2022-12-03T22:47:27.808Z,46.90
2022-12-03T22:49:54.429Z,45.90
2022-12-03T22:52:20.980Z,40.03
2022-12-03T22:54:47.760Z,46.83
2022-12-03T22:57:14.549Z,45.08
2022-12-03T22:59:42.911Z,47.13
2022-12-03T23:02:09.543Z,42.35
2022-12-03T23:04:36.058Z,47.00
2022-12-03T23:07:02.482Z,45.40
2022-12-03T23:09:28.878Z,48.50
2022-12-03T23:11:55.400Z,48.33
2022-12-03T23:14:21.824Z,49.47
2022-12-03T23:16:48.292Z,43.35
2022-12-03T23:19:14.854Z,53.85
2022-12-03T23:21:41.685Z,51.92
2022-12-03T23:24:08.249Z,44.90
2022-12-03T23:26:37.445Z,35.92
2022-12-03T23:29:05.314Z,48.20
2022-12-03T23:31:33.317Z,48.90
2022-12-03T23:34:01.271Z,50.65
2022-12-03T23:36:29.949Z,46.80
2022-12-03T23:41:24.646Z,48.22
2022-12-03T23:43:51.629Z,51.33
2022-12-03T23:46:22.096Z,47.80
2022-12-03T23:48:50.039Z,49.45
2022-12-03T23:51:22.330Z,44.45
2022-12-03T23:53:50.883Z,47.40
2022-12-03T23:56:20.811Z,43.28
2022-12-03T23:58:48.827Z,50.05
